Anchorage/Merrill Field, Alaska
Current Conditions -  °F | °C
As of 12:53 PM on Thursday 27 Nov 2014 (Local Time) from PAMR Reporting Station
Broken Clouds Broken Clouds  
Wind Chill: -6°   Ceiling: 1000
Heat Index: -6°   Visibility: 10mi
Dew Point: -8°   Wind: 3mph
Humidity: 85%   Direction: 80°E
Pressure: 30.2"   Gusts: NA
Location:  61.21°N, 149.85°W
Report Text: PAMR 272153Z 08003KT 10SM BKN010 M06/M08 A3020 RMK AO2 CIG 007V012 SLP230 T10561078
Loading
Personal Weather Stations






























Interactive Weather Map New forecast layout! Learn more

10-Day Weather Forecast

Advertisements
Track Severe Weather on mobile